Time;durP1;ratioP1;P1;durP2;ratioP2;P2;SDS_P1;SDS_P2;PMS_P1;PMS_P2;Temp;Humidity;BMP_temperature;BMP_pressure;BME280_temperature;BME280_humidity;BME280_pressure;Samples;Min_cycle;Max_cycle;Signal;HPM_P1;HPM_P2
2023/04/12 00:00:16;;;;;;;3.00;1.70;;;15.00;55.10;;;;;;5055583;28;20459;-75
2023/04/12 00:02:44;;;;;;;4.23;2.10;;;15.00;55.40;;;;;;5050336;28;20480;-75
2023/04/12 00:05:12;;;;;;;4.30;1.70;;;15.00;55.90;;;;;;5037106;28;20480;-75
2023/04/12 00:07:41;;;;;;;3.70;2.07;;;14.90;56.20;;;;;;5032603;28;20845;-75
2023/04/12 00:10:09;;;;;;;3.87;2.07;;;14.90;56.60;;;;;;5033027;28;20455;-75
2023/04/12 00:12:36;;;;;;;4.17;2.10;;;14.70;57.30;;;;;;5020535;28;20449;-74
2023/04/12 00:15:03;;;;;;;3.53;2.00;;;14.60;57.70;;;;;;5041742;28;20543;-75
2023/04/12 00:17:30;;;;;;;4.70;1.90;;;14.50;58.30;;;;;;5047968;28;21127;-75
2023/04/12 00:19:58;;;;;;;4.50;2.23;;;14.40;59.00;;;;;;5052577;28;21003;-75
2023/04/12 00:22:27;;;;;;;3.23;1.70;;;14.30;59.80;;;;;;5048777;28;20474;-74
2023/04/12 00:24:54;;;;;;;3.63;2.00;;;14.20;61.10;;;;;;5048252;28;21054;-74
2023/04/12 00:27:21;;;;;;;4.70;2.10;;;14.10;62.00;;;;;;5033545;28;21014;-75
2023/04/12 00:29:48;;;;;;;6.13;2.07;;;14.10;62.90;;;;;;5031793;28;20481;-74
2023/04/12 00:32:15;;;;;;;2.87;1.97;;;14.20;63.60;;;;;;5036644;28;20458;-74
2023/04/12 00:34:41;;;;;;;2.93;1.57;;;14.20;64.40;;;;;;5051991;28;20792;-74
2023/04/12 00:37:10;;;;;;;3.50;1.80;;;14.20;64.90;;;;;;5051227;28;20948;-74
2023/04/12 00:39:36;;;;;;;4.20;1.90;;;14.20;66.10;;;;;;5044995;28;20461;-75
2023/04/12 00:42:04;;;;;;;3.37;1.70;;;14.10;66.40;;;;;;5046165;28;20456;-76
2023/04/12 00:44:32;;;;;;;4.57;1.97;;;14.20;67.10;;;;;;5043261;28;20476;-75
2023/04/12 00:47:00;;;;;;;6.07;1.87;;;14.20;67.20;;;;;;5032738;28;20453;-75
2023/04/12 00:49:29;;;;;;;1.90;1.57;;;14.20;67.60;;;;;;5014775;28;20519;-75
2023/04/12 00:52:02;;;;;;;5.23;2.07;;;14.30;67.80;;;;;;5032664;28;20457;-75
2023/04/12 00:54:39;;;;;;;3.53;1.63;;;14.40;67.70;;;;;;5046651;28;20515;-74
2023/04/12 00:57:06;;;;;;;5.53;1.80;;;14.40;68.30;;;;;;5036972;28;21056;-76
2023/04/12 00:59:33;;;;;;;5.00;1.90;;;14.40;67.90;;;;;;5041386;28;20541;-76
2023/04/12 01:02:00;;;;;;;2.67;1.70;;;14.40;68.00;;;;;;5051530;28;20470;-75
2023/04/12 01:04:28;;;;;;;3.30;1.93;;;14.50;68.60;;;;;;5044379;28;20975;-77
2023/04/12 01:07:14;;;;;;;2.90;1.63;;;14.50;68.80;;;;;;5042362;28;20531;-76
2023/04/12 01:09:53;;;;;;;4.70;2.30;;;14.50;69.50;;;;;;5032211;28;20530;-76
2023/04/12 01:12:29;;;;;;;3.23;1.90;;;14.50;68.90;;;;;;5050252;28;20544;-76
2023/04/12 01:15:03;;;;;;;3.30;1.80;;;14.50;69.20;;;;;;5043006;28;20445;-76
2023/04/12 01:17:36;;;;;;;5.10;2.17;;;14.50;69.40;;;;;;5048422;28;20811;-76
2023/04/12 01:20:12;;;;;;;3.27;1.80;;;14.50;70.40;;;;;;5051980;28;20464;-72
2023/04/12 01:23:09;;;;;;;4.60;1.87;;;14.50;70.30;;;;;;5038725;28;20788;-75
2023/04/12 01:25:57;;;;;;;2.97;1.90;;;14.50;70.70;;;;;;5038826;28;20480;-73
2023/04/12 01:28:33;;;;;;;5.40;1.97;;;14.40;70.60;;;;;;5034231;28;20503;-75
2023/04/12 01:31:02;;;;;;;2.47;1.70;;;14.40;71.00;;;;;;5037718;28;20479;-76
2023/04/12 01:33:31;;;;;;;4.40;2.17;;;14.50;70.80;;;;;;5050598;28;20448;-77
2023/04/12 01:36:00;;;;;;;1.60;1.50;;;14.50;70.80;;;;;;5038385;28;20450;-76
2023/04/12 01:38:28;;;;;;;5.70;2.17;;;14.60;70.60;;;;;;5038919;28;20447;-76
2023/04/12 01:40:56;;;;;;;3.20;2.10;;;14.60;71.00;;;;;;5046504;28;20461;-75
2023/04/12 01:43:23;;;;;;;2.43;1.80;;;14.60;70.70;;;;;;5038394;28;20476;-75
2023/04/12 01:45:51;;;;;;;3.57;2.10;;;14.50;70.90;;;;;;5047802;28;20569;-75
2023/04/12 01:48:18;;;;;;;3.63;2.27;;;14.40;70.40;;;;;;5051153;28;20460;-73
2023/04/12 01:51:00;;;;;;;3.93;1.90;;;14.40;71.30;;;;;;5043730;28;20460;-72
2023/04/12 01:53:32;;;;;;;4.10;1.97;;;14.40;71.80;;;;;;5031194;28;20476;-76
2023/04/12 01:56:07;;;;;;;2.33;1.60;;;14.50;71.80;;;;;;5031422;28;20471;-75
2023/04/12 01:58:34;;;;;;;3.63;1.83;;;14.40;71.00;;;;;;5035537;28;20444;-74
2023/04/12 02:01:04;;;;;;;2.10;1.50;;;14.30;69.70;;;;;;5040481;28;20459;-75
2023/04/12 02:03:31;;;;;;;2.67;1.77;;;14.30;69.90;;;;;;5030786;28;20480;-76
2023/04/12 02:05:59;;;;;;;3.57;1.70;;;14.30;70.00;;;;;;5030963;28;20824;-76
2023/04/12 02:08:26;;;;;;;2.40;1.73;;;14.20;70.10;;;;;;5031276;28;20961;-74
2023/04/12 02:10:54;;;;;;;3.40;1.53;;;14.20;70.50;;;;;;5034230;28;20455;-74
2023/04/12 02:13:21;;;;;;;2.93;1.73;;;14.10;70.00;;;;;;5049812;28;20484;-75
2023/04/12 02:15:48;;;;;;;4.03;1.57;;;14.10;70.10;;;;;;5039668;28;20533;-76
2023/04/12 02:18:16;;;;;;;5.00;1.87;;;14.10;70.00;;;;;;5042132;28;20499;-78
2023/04/12 02:20:45;;;;;;;4.40;1.53;;;14.00;70.20;;;;;;5038292;28;20456;-77
2023/04/12 02:23:12;;;;;;;2.47;1.60;;;13.90;69.90;;;;;;5043148;28;20467;-75
2023/04/12 02:25:40;;;;;;;4.23;1.70;;;13.90;70.70;;;;;;5051429;28;20987;-76
2023/04/12 02:28:07;;;;;;;3.47;1.50;;;13.80;70.50;;;;;;5051043;28;20456;-76
2023/04/12 02:30:33;;;;;;;2.73;1.23;;;13.80;70.80;;;;;;5000993;28;20448;-75
2023/04/12 02:33:01;;;;;;;2.50;1.73;;;13.80;71.10;;;;;;5041481;28;20818;-75
2023/04/12 02:35:31;;;;;;;5.13;1.63;;;13.80;71.30;;;;;;5031679;28;20481;-77
2023/04/12 02:37:58;;;;;;;2.77;1.63;;;13.80;71.60;;;;;;5041366;28;20474;-77
2023/04/12 02:40:26;;;;;;;3.43;2.17;;;13.70;71.40;;;;;;5029002;28;20810;-75
2023/04/12 02:42:52;;;;;;;1.60;1.50;;;13.70;71.30;;;;;;5031412;28;20457;-77
2023/04/12 02:45:19;;;;;;;2.73;1.13;;;13.70;71.20;;;;;;5016347;28;20488;-75
2023/04/12 02:47:46;;;;;;;1.90;1.70;;;13.70;71.30;;;;;;5043669;28;20464;-75
2023/04/12 02:50:13;;;;;;;2.50;1.53;;;13.70;71.50;;;;;;5031892;28;20449;-77
2023/04/12 02:52:41;;;;;;;3.20;1.50;;;13.60;71.60;;;;;;5037626;28;20476;-75
2023/04/12 02:55:09;;;;;;;2.13;1.57;;;13.70;71.50;;;;;;5050829;28;20448;-75
2023/04/12 02:57:36;;;;;;;2.83;1.27;;;13.60;71.40;;;;;;5050675;28;20463;-77
2023/04/12 03:00:07;;;;;;;4.07;1.60;;;13.60;71.70;;;;;;5014551;28;20455;-76
2023/04/12 03:02:35;;;;;;;1.60;1.43;;;13.60;71.70;;;;;;5050333;28;20486;-78
2023/04/12 03:05:02;;;;;;;2.00;1.60;;;13.60;71.50;;;;;;5049935;28;20491;-78
2023/04/12 03:07:29;;;;;;;5.47;1.60;;;13.60;71.90;;;;;;5043840;28;20461;-76
2023/04/12 03:09:58;;;;;;;2.50;1.37;;;13.60;71.80;;;;;;5015025;28;20543;-78
2023/04/12 03:12:25;;;;;;;1.67;1.37;;;13.70;71.90;;;;;;5029080;28;20445;-75
2023/04/12 03:14:51;;;;;;;1.50;1.40;;;13.70;71.60;;;;;;5039874;28;20474;-76
2023/04/12 03:17:18;;;;;;;2.00;1.40;;;13.70;71.70;;;;;;5034344;28;20798;-76
2023/04/12 03:19:45;;;;;;;2.83;1.60;;;13.70;71.80;;;;;;5031487;28;20449;-75
2023/04/12 03:22:12;;;;;;;3.33;1.70;;;13.70;71.80;;;;;;5031929;28;20544;-77
2023/04/12 03:24:41;;;;;;;2.87;1.73;;;13.70;71.40;;;;;;5046000;28;20457;-74
2023/04/12 03:27:10;;;;;;;4.53;1.53;;;13.70;71.70;;;;;;5054628;28;20452;-76
2023/04/12 03:29:36;;;;;;;1.70;1.40;;;13.70;71.70;;;;;;5044939;28;20510;-75
2023/04/12 03:32:03;;;;;;;4.10;1.93;;;13.60;72.00;;;;;;5034913;28;20949;-75
2023/04/12 03:34:31;;;;;;;3.27;1.57;;;13.70;72.60;;;;;;5036181;28;20455;-78
2023/04/12 03:36:58;;;;;;;3.43;1.77;;;13.70;72.30;;;;;;5052371;28;20444;-74
2023/04/12 03:39:25;;;;;;;1.57;1.40;;;13.70;72.10;;;;;;5065231;28;20447;-77
2023/04/12 03:41:52;;;;;;;3.50;1.50;;;13.70;72.20;;;;;;5038388;28;20538;-77
2023/04/12 03:44:21;;;;;;;2.20;1.40;;;13.70;72.60;;;;;;5057073;28;20464;-74
2023/04/12 03:46:48;;;;;;;3.37;1.87;;;13.80;72.80;;;;;;5057450;28;20516;-76
2023/04/12 03:49:16;;;;;;;2.07;1.50;;;13.90;72.70;;;;;;5030331;28;20480;-76
2023/04/12 03:51:43;;;;;;;2.93;1.80;;;13.90;72.30;;;;;;5027545;28;20492;-73
2023/04/12 03:54:10;;;;;;;3.70;1.80;;;13.90;72.10;;;;;;5053147;28;20472;-75
2023/04/12 03:56:37;;;;;;;1.97;1.53;;;14.00;72.50;;;;;;5038371;28;20459;-76
2023/04/12 03:59:04;;;;;;;2.20;1.63;;;14.00;72.40;;;;;;5033951;28;20853;-75
2023/04/12 04:01:33;;;;;;;4.13;1.73;;;14.00;72.20;;;;;;5046620;28;20479;-75
2023/04/12 04:04:00;;;;;;;3.03;1.83;;;14.00;72.50;;;;;;5051957;28;21017;-75
2023/04/12 04:06:28;;;;;;;3.60;1.53;;;14.00;72.10;;;;;;5035392;28;20579;-75
2023/04/12 04:08:55;;;;;;;3.03;1.53;;;14.00;72.30;;;;;;5053647;28;20463;-74
2023/04/12 04:11:23;;;;;;;3.10;1.50;;;14.00;72.20;;;;;;5041584;28;20468;-75
2023/04/12 04:13:50;;;;;;;5.77;1.80;;;13.90;72.10;;;;;;5046094;28;20464;-75
2023/04/12 04:16:16;;;;;;;3.00;1.60;;;13.90;72.30;;;;;;5037495;28;20539;-74
2023/04/12 04:18:45;;;;;;;2.17;1.90;;;13.90;72.50;;;;;;5051421;28;20456;-75
2023/04/12 04:21:13;;;;;;;2.50;1.53;;;13.80;72.70;;;;;;5022931;28;20477;-75
2023/04/12 04:23:43;;;;;;;1.77;1.63;;;13.90;73.00;;;;;;5043251;28;20457;-75
2023/04/12 04:26:12;;;;;;;4.10;1.80;;;13.70;72.90;;;;;;5046162;28;20488;-74
2023/04/12 04:28:44;;;;;;;2.43;1.50;;;13.70;72.80;;;;;;5035380;28;20485;-75
2023/04/12 04:31:12;;;;;;;2.37;1.60;;;13.70;73.30;;;;;;5039118;28;20929;-73
2023/04/12 04:33:40;;;;;;;3.07;2.00;;;13.60;73.60;;;;;;5033130;28;20540;-73
2023/04/12 04:36:10;;;;;;;2.00;1.70;;;13.60;73.60;;;;;;5040127;28;20458;-75
2023/04/12 04:38:39;;;;;;;2.70;1.67;;;13.60;73.70;;;;;;4983191;28;20525;-76
2023/04/12 04:41:07;;;;;;;1.80;1.70;;;13.60;73.60;;;;;;5051904;28;20461;-75
2023/04/12 04:43:38;;;;;;;2.40;1.53;;;13.50;73.60;;;;;;5053634;28;20487;-73
2023/04/12 04:46:06;;;;;;;2.00;1.70;;;13.50;74.40;;;;;;5036674;28;20485;-74
2023/04/12 04:48:33;;;;;;;2.03;1.70;;;13.50;74.40;;;;;;5043841;28;20448;-73
2023/04/12 04:51:00;;;;;;;1.60;1.50;;;13.50;74.30;;;;;;5042569;28;20453;-75
2023/04/12 04:53:29;;;;;;;2.80;1.63;;;13.50;74.20;;;;;;5049413;28;20490;-74
2023/04/12 04:55:58;;;;;;;2.10;1.50;;;13.40;74.90;;;;;;5050980;28;20521;-72
2023/04/12 04:58:25;;;;;;;2.67;1.73;;;13.40;74.80;;;;;;5034087;28;20449;-73
2023/04/12 05:00:54;;;;;;;1.50;1.40;;;13.40;75.00;;;;;;5041600;28;20452;-75
2023/04/12 05:03:21;;;;;;;2.83;1.60;;;13.40;74.70;;;;;;5040956;28;20531;-72
2023/04/12 05:05:48;;;;;;;2.60;1.73;;;13.40;75.00;;;;;;5048674;28;20944;-71
2023/04/12 05:08:15;;;;;;;2.27;1.70;;;13.30;76.10;;;;;;5052314;28;20453;-72
2023/04/12 05:10:44;;;;;;;2.00;1.50;;;13.40;75.30;;;;;;5049628;28;20485;-72
2023/04/12 05:13:12;;;;;;;2.70;1.50;;;13.30;75.10;;;;;;5035652;28;20880;-73
2023/04/12 05:15:40;;;;;;;4.00;1.60;;;13.30;75.90;;;;;;5033681;28;20456;-73
2023/04/12 05:18:07;;;;;;;2.30;1.27;;;13.40;75.50;;;;;;5032915;28;20540;-73
2023/04/12 05:20:38;;;;;;;2.03;1.40;;;13.40;75.20;;;;;;5033834;28;20453;-71
2023/04/12 05:23:06;;;;;;;1.87;1.43;;;13.50;75.00;;;;;;5033018;28;20477;-73
2023/04/12 05:25:34;;;;;;;2.00;1.60;;;13.40;74.90;;;;;;5031718;28;20568;-74
2023/04/12 05:28:03;;;;;;;3.53;1.47;;;13.50;75.50;;;;;;5032741;28;20544;-73
2023/04/12 05:30:30;;;;;;;2.30;1.73;;;13.50;75.10;;;;;;5039155;28;21016;-72
2023/04/12 05:32:57;;;;;;;3.30;1.83;;;13.50;75.00;;;;;;5038624;28;20461;-74
2023/04/12 05:35:24;;;;;;;1.63;1.20;;;13.50;75.00;;;;;;5048435;28;20448;-73
2023/04/12 05:37:50;;;;;;;1.37;1.27;;;13.50;74.80;;;;;;5039510;28;20482;-74
2023/04/12 05:40:17;;;;;;;2.03;1.40;;;13.50;75.00;;;;;;5039727;28;20457;-73
2023/04/12 05:42:44;;;;;;;1.20;1.10;;;13.50;75.30;;;;;;5044337;28;20448;-73
2023/04/12 05:45:12;;;;;;;1.50;1.30;;;13.50;75.10;;;;;;5037091;28;20483;-73
2023/04/12 05:47:39;;;;;;;2.10;1.70;;;13.50;75.10;;;;;;5036315;28;20597;-73
2023/04/12 05:50:07;;;;;;;2.63;1.50;;;13.50;75.40;;;;;;5034460;28;20460;-72
2023/04/12 05:52:34;;;;;;;2.10;1.60;;;13.60;75.30;;;;;;5042093;28;20527;-71
2023/04/12 05:55:01;;;;;;;2.33;1.60;;;13.70;75.30;;;;;;5033650;28;20464;-67
2023/04/12 05:57:28;;;;;;;2.47;1.67;;;13.70;75.50;;;;;;5039152;28;20548;-72
2023/04/12 05:59:55;;;;;;;2.10;1.53;;;13.60;75.60;;;;;;5045119;28;20987;-72
2023/04/12 06:02:24;;;;;;;1.60;1.43;;;13.60;75.70;;;;;;5046222;28;20523;-72
2023/04/12 06:04:52;;;;;;;2.60;1.80;;;13.60;75.30;;;;;;5040264;28;20461;-70
2023/04/12 06:07:20;;;;;;;1.63;1.30;;;13.60;75.70;;;;;;5045431;28;20494;-72
2023/04/12 06:09:48;;;;;;;3.17;1.47;;;13.50;75.80;;;;;;5031277;28;20525;-71
2023/04/12 06:12:15;;;;;;;1.97;1.37;;;13.60;76.00;;;;;;5049274;28;20503;-71
2023/04/12 06:14:42;;;;;;;2.23;1.73;;;13.50;76.10;;;;;;5038174;28;20453;-72
2023/04/12 06:17:09;;;;;;;1.87;1.73;;;13.50;76.10;;;;;;5038048;28;20461;-72
2023/04/12 06:19:37;;;;;;;2.00;1.30;;;13.60;76.30;;;;;;5051464;28;20463;-72
2023/04/12 06:22:04;;;;;;;2.53;1.30;;;13.60;76.30;;;;;;5047992;28;20522;-72
2023/04/12 06:24:31;;;;;;;3.80;1.67;;;13.60;75.80;;;;;;5046393;28;20508;-72
2023/04/12 06:26:58;;;;;;;1.80;1.60;;;13.60;76.30;;;;;;5037864;28;20480;-72
2023/04/12 06:29:25;;;;;;;2.50;1.60;;;13.70;75.90;;;;;;5037764;28;20461;-72
2023/04/12 06:31:51;;;;;;;2.30;1.43;;;13.60;76.30;;;;;;5031275;28;20979;-72
2023/04/12 06:34:18;;;;;;;2.27;1.53;;;13.70;76.60;;;;;;5030625;28;20460;-71
2023/04/12 06:36:47;;;;;;;2.73;1.70;;;13.70;76.40;;;;;;5030264;28;20449;-72
2023/04/12 06:39:15;;;;;;;1.50;1.40;;;13.70;76.40;;;;;;5030166;28;20449;-72
2023/04/12 06:41:42;;;;;;;3.47;1.67;;;13.70;76.50;;;;;;5030090;28;20896;-71
2023/04/12 06:44:09;;;;;;;2.40;1.67;;;13.80;76.70;;;;;;5030298;28;20457;-71
2023/04/12 06:46:36;;;;;;;1.50;1.40;;;13.70;76.40;;;;;;5031009;28;20480;-72
2023/04/12 06:49:03;;;;;;;1.60;1.50;;;13.80;76.60;;;;;;5049631;28;20458;-71
2023/04/12 06:51:30;;;;;;;3.30;1.50;;;13.80;76.50;;;;;;5049648;28;20938;-72
2023/04/12 06:53:58;;;;;;;2.57;1.77;;;13.80;77.00;;;;;;5035867;28;20921;-72
2023/04/12 06:56:25;;;;;;;2.93;1.60;;;13.80;76.80;;;;;;5039178;28;20531;-71
2023/04/12 06:58:52;;;;;;;2.63;1.40;;;13.90;77.10;;;;;;5049968;28;20494;-72
2023/04/12 07:01:19;;;;;;;2.00;1.50;;;13.80;77.10;;;;;;5053333;28;20458;-72
2023/04/12 07:03:46;;;;;;;2.33;1.20;;;13.80;77.20;;;;;;5054204;28;20448;-72
2023/04/12 07:06:13;;;;;;;2.20;1.53;;;13.90;77.20;;;;;;5053770;28;20482;-72
2023/04/12 07:08:40;;;;;;;2.63;1.63;;;13.90;76.90;;;;;;5053867;28;20480;-72
2023/04/12 07:11:08;;;;;;;1.47;1.37;;;13.90;77.20;;;;;;5053887;28;20810;-72
2023/04/12 07:13:35;;;;;;;2.03;1.37;;;14.00;77.20;;;;;;5053620;28;20527;-72
2023/04/12 07:16:02;;;;;;;2.37;1.53;;;14.00;76.90;;;;;;5054112;28;20458;-72
2023/04/12 07:18:29;;;;;;;2.10;1.57;;;14.10;77.60;;;;;;5049743;28;20503;-72
2023/04/12 07:20:56;;;;;;;2.13;1.90;;;14.10;77.00;;;;;;5033664;28;20484;-71
2023/04/12 07:23:24;;;;;;;3.00;1.70;;;14.10;77.40;;;;;;5046213;28;20444;-72
2023/04/12 07:25:51;;;;;;;3.37;1.70;;;14.10;77.60;;;;;;5054556;28;20451;-71
2023/04/12 07:28:19;;;;;;;2.10;1.60;;;14.10;77.50;;;;;;5055143;28;20454;-72
2023/04/12 07:30:46;;;;;;;2.43;1.60;;;14.20;77.60;;;;;;5052411;28;20535;-72
2023/04/12 07:33:13;;;;;;;2.73;1.60;;;14.30;77.90;;;;;;5050358;28;20840;-71
2023/04/12 07:35:40;;;;;;;1.60;1.50;;;14.40;77.90;;;;;;5035731;28;20449;-71
2023/04/12 07:38:07;;;;;;;2.87;1.80;;;14.50;77.70;;;;;;5033772;28;20445;-72
2023/04/12 07:40:34;;;;;;;1.97;1.40;;;14.60;78.10;;;;;;5032158;28;20552;-72
2023/04/12 07:43:01;;;;;;;1.67;1.50;;;14.70;77.60;;;;;;5032791;28;20444;-72
2023/04/12 07:45:29;;;;;;;1.63;1.50;;;14.70;77.20;;;;;;5033725;28;20457;-72
2023/04/12 07:47:56;;;;;;;3.60;2.07;;;14.80;77.30;;;;;;5037033;28;20488;-71
2023/04/12 07:50:23;;;;;;;3.93;1.97;;;14.90;77.60;;;;;;5053373;28;20542;-71
2023/04/12 07:52:50;;;;;;;2.83;1.70;;;15.00;77.20;;;;;;5052506;28;20464;-71
2023/04/12 07:55:17;;;;;;;2.13;1.50;;;15.00;77.10;;;;;;5053159;28;20484;-73
2023/04/12 07:57:44;;;;;;;2.13;1.73;;;15.00;77.20;;;;;;5052972;28;20471;-71
2023/04/12 08:00:12;;;;;;;3.03;1.73;;;15.10;76.80;;;;;;5052895;28;20947;-72
2023/04/12 08:02:40;;;;;;;3.10;1.90;;;15.00;77.10;;;;;;5048902;28;20530;-72
2023/04/12 08:05:08;;;;;;;1.93;1.77;;;15.10;77.70;;;;;;5032958;28;20505;-72
2023/04/12 08:07:35;;;;;;;2.97;1.67;;;15.10;77.80;;;;;;5032980;28;20489;-70
2023/04/12 08:10:02;;;;;;;2.23;1.93;;;15.20;78.00;;;;;;5032986;28;20445;-72
2023/04/12 08:12:29;;;;;;;2.10;1.90;;;15.20;77.60;;;;;;5031378;28;20449;-72
2023/04/12 08:14:56;;;;;;;2.80;1.77;;;15.20;77.50;;;;;;5033238;28;20456;-72
2023/04/12 08:17:26;;;;;;;2.40;2.00;;;15.30;77.90;;;;;;5032805;28;21029;-72
2023/04/12 08:19:54;;;;;;;3.90;2.20;;;15.20;77.90;;;;;;5032975;28;20460;-72
2023/04/12 08:22:21;;;;;;;2.40;1.87;;;15.30;78.10;;;;;;5036739;28;20535;-73
2023/04/12 08:24:48;;;;;;;2.13;1.53;;;15.30;78.20;;;;;;5052704;28;20448;-72
2023/04/12 08:27:15;;;;;;;2.97;1.77;;;15.40;78.20;;;;;;5052707;28;20480;-72
2023/04/12 08:29:43;;;;;;;3.33;1.90;;;15.50;77.40;;;;;;5052512;28;20546;-72
2023/04/12 08:32:11;;;;;;;3.73;1.90;;;15.50;77.20;;;;;;5052162;28;20816;-72
2023/04/12 08:34:38;;;;;;;6.40;2.20;;;15.50;78.20;;;;;;5032879;28;20540;-71
2023/04/12 08:37:06;;;;;;;3.30;1.90;;;15.50;77.30;;;;;;5032500;28;20540;-72
2023/04/12 08:39:33;;;;;;;3.53;2.10;;;15.50;77.00;;;;;;5032466;28;21040;-72
2023/04/12 08:42:01;;;;;;;4.90;2.00;;;15.50;78.10;;;;;;5032164;28;20503;-72
2023/04/12 08:44:36;;;;;;;4.17;2.00;;;15.50;78.30;;;;;;5032212;28;20483;-72
2023/04/12 08:47:04;;;;;;;3.83;2.33;;;15.60;79.20;;;;;;5032586;28;20484;-72
2023/04/12 08:49:32;;;;;;;4.47;1.97;;;15.80;77.90;;;;;;5052186;28;20451;-72
2023/04/12 08:52:04;;;;;;;3.10;2.23;;;15.80;77.40;;;;;;5051803;28;20484;-71
2023/04/12 08:54:32;;;;;;;2.70;1.83;;;15.80;77.80;;;;;;5052045;28;20570;-72
2023/04/12 08:57:01;;;;;;;7.90;3.23;;;15.90;77.60;;;;;;5052037;28;20440;-72
2023/04/12 08:59:29;;;;;;;9.50;6.17;;;15.90;76.90;;;;;;5052199;28;20467;-72
2023/04/12 09:01:57;;;;;;;7.33;4.23;;;15.90;77.20;;;;;;5051295;28;20950;-71
2023/04/12 09:04:26;;;;;;;5.27;2.97;;;15.90;77.90;;;;;;5052002;28;20991;-72
2023/04/12 09:06:53;;;;;;;8.03;3.03;;;16.00;77.30;;;;;;5051737;28;21167;-72
2023/04/12 09:09:20;;;;;;;5.27;3.23;;;16.00;77.30;;;;;;5051710;28;20496;-72
2023/04/12 09:11:48;;;;;;;5.00;2.50;;;16.00;78.50;;;;;;5051670;28;20479;-72
2023/04/12 09:14:22;;;;;;;4.13;2.37;;;16.00;78.40;;;;;;5051964;28;20444;-69
2023/04/12 09:16:50;;;;;;;3.60;2.57;;;16.00;78.70;;;;;;5049084;28;20440;-72
2023/04/12 09:19:30;;;;;;;2.83;2.40;;;16.00;78.90;;;;;;5031769;28;20961;-72
2023/04/12 09:21:57;;;;;;;5.63;2.50;;;15.90;78.20;;;;;;5032239;28;20445;-72
2023/04/12 09:24:24;;;;;;;4.77;2.40;;;15.90;78.70;;;;;;5051245;28;20448;-72
2023/04/12 09:27:02;;;;;;;3.57;2.23;;;16.00;78.00;;;;;;5051536;28;20486;-72
2023/04/12 09:29:30;;;;;;;4.10;2.30;;;15.90;77.90;;;;;;5051707;28;20452;-72
2023/04/12 09:32:00;;;;;;;3.90;2.20;;;15.90;77.00;;;;;;5045584;28;20479;-71
2023/04/12 09:34:28;;;;;;;3.37;1.90;;;15.90;77.30;;;;;;5031285;28;20449;-72
2023/04/12 09:36:55;;;;;;;4.77;2.50;;;15.80;77.80;;;;;;5031325;28;20973;-72
2023/04/12 09:39:31;;;;;;;3.87;2.30;;;15.90;77.40;;;;;;5031297;28;20939;-72
2023/04/12 09:42:07;;;;;;;4.10;2.10;;;15.90;78.20;;;;;;5030999;28;20460;-72
2023/04/12 09:44:34;;;;;;;4.00;2.00;;;15.90;78.20;;;;;;5031139;28;20479;-71
2023/04/12 09:47:03;;;;;;;4.80;2.20;;;15.90;77.40;;;;;;5038999;28;20491;-72
2023/04/12 09:49:40;;;;;;;4.60;2.23;;;15.90;77.30;;;;;;5051468;28;20451;-72
2023/04/12 09:52:09;;;;;;;3.90;2.10;;;15.90;78.70;;;;;;5050541;28;20450;-72
2023/04/12 09:54:38;;;;;;;5.73;2.17;;;15.90;77.20;;;;;;5038471;28;20850;-71
2023/04/12 09:57:09;;;;;;;4.10;2.40;;;15.90;77.70;;;;;;5045264;28;20452;-72
2023/04/12 09:59:38;;;;;;;5.77;2.13;;;16.00;78.50;;;;;;5051209;28;20460;-72
2023/04/12 10:02:08;;;;;;;3.10;2.23;;;16.00;77.70;;;;;;5050309;28;20456;-72
2023/04/12 10:04:39;;;;;;;5.30;2.23;;;16.00;77.50;;;;;;5050604;28;20453;-72
2023/04/12 10:07:06;;;;;;;2.57;1.97;;;16.10;77.70;;;;;;5050704;28;21030;-72
2023/04/12 10:09:34;;;;;;;3.13;2.07;;;16.10;77.50;;;;;;5050924;28;20440;-72
2023/04/12 10:12:03;;;;;;;3.07;2.00;;;16.00;77.10;;;;;;5034316;28;20568;-72
2023/04/12 10:14:32;;;;;;;2.23;1.60;;;16.10;78.20;;;;;;5030756;28;20540;-72
2023/04/12 10:17:01;;;;;;;3.60;1.90;;;16.10;77.40;;;;;;5030614;28;20540;-72
2023/04/12 10:19:30;;;;;;;4.60;2.00;;;16.20;78.20;;;;;;5030577;28;20503;-72
2023/04/12 10:21:58;;;;;;;4.13;2.30;;;16.20;78.00;;;;;;5031428;28;20516;-72
2023/04/12 10:24:26;;;;;;;2.63;1.93;;;16.30;77.90;;;;;;5045794;28;20454;-71
2023/04/12 10:26:57;;;;;;;4.10;1.80;;;16.20;76.80;;;;;;5032554;28;20449;-71
2023/04/12 10:29:26;;;;;;;2.60;1.77;;;16.30;77.90;;;;;;5030692;28;20849;-72
2023/04/12 10:31:55;;;;;;;1.93;1.77;;;16.30;76.50;;;;;;5029962;28;20442;-72
2023/04/12 10:34:28;;;;;;;2.90;1.60;;;16.30;77.50;;;;;;5029611;28;20449;-72
2023/04/12 10:36:57;;;;;;;1.83;1.67;;;16.30;77.40;;;;;;5030442;28;20448;-72
2023/04/12 10:39:40;;;;;;;4.27;1.70;;;16.40;77.20;;;;;;5030331;28;20999;-72
2023/04/12 10:42:23;;;;;;;3.67;1.60;;;16.50;77.00;;;;;;5028807;28;20953;-71
2023/04/12 10:44:51;;;;;;;1.70;1.60;;;16.60;76.40;;;;;;5029847;28;20487;-72
2023/04/12 10:47:52;;;;;;;1.70;1.40;;;16.60;76.30;;;;;;5029966;28;20489;-72
2023/04/12 10:50:24;;;;;;;1.67;1.30;;;16.60;77.20;;;;;;5030139;28;20455;-72
2023/04/12 10:53:25;;;;;;;1.30;1.20;;;16.60;76.60;;;;;;5032041;28;20479;-72
2023/04/12 10:55:53;;;;;;;1.20;1.10;;;16.60;76.10;;;;;;5032084;28;20447;-72
2023/04/12 10:58:57;;;;;;;1.67;1.30;;;16.70;75.30;;;;;;5046539;28;20460;-72
2023/04/12 11:01:25;;;;;;;3.50;1.23;;;16.70;75.10;;;;;;5029631;28;20453;-72
2023/04/12 11:04:15;;;;;;;1.20;1.00;;;16.90;76.00;;;;;;5028461;28;20445;-73
2023/04/12 11:06:49;;;;;;;2.03;1.40;;;17.10;76.90;;;;;;5031449;28;21027;-71
2023/04/12 11:09:25;;;;;;;1.83;1.20;;;17.20;74.60;;;;;;5049541;28;20516;-72
2023/04/12 11:11:58;;;;;;;2.27;1.20;;;17.20;74.40;;;;;;5051986;28;20452;-72
2023/04/12 11:14:29;;;;;;;1.63;1.30;;;17.30;73.30;;;;;;5052190;28;20547;-72
2023/04/12 11:17:30;;;;;;;1.43;1.13;;;17.20;72.70;;;;;;5052641;28;20452;-72
2023/04/12 11:19:59;;;;;;;2.67;1.30;;;17.20;72.80;;;;;;4987928;28;20437;-72
2023/04/12 11:22:30;;;;;;;1.40;1.30;;;17.30;73.50;;;;;;4985242;28;21241;-73
2023/04/12 11:24:58;;;;;;;2.30;1.80;;;17.40;72.40;;;;;;4997889;28;20858;-72
2023/04/12 11:27:26;;;;;;;1.57;1.17;;;17.60;71.70;;;;;;5029747;28;20884;-73
2023/04/12 11:29:56;;;;;;;2.17;1.20;;;17.70;71.20;;;;;;5029738;28;20460;-72
2023/04/12 11:32:26;;;;;;;1.50;1.20;;;17.80;70.00;;;;;;5048144;28;20444;-71
2023/04/12 11:34:55;;;;;;;2.67;1.23;;;17.80;69.20;;;;;;5049645;28;20539;-72
2023/04/12 11:37:23;;;;;;;1.60;1.10;;;17.80;68.10;;;;;;5046735;28;20465;-72
2023/04/12 11:39:53;;;;;;;1.43;1.00;;;17.80;68.40;;;;;;5030013;28;20870;-72
2023/04/12 11:42:23;;;;;;;2.53;1.20;;;17.90;68.50;;;;;;5029337;28;20460;-72
2023/04/12 11:44:50;;;;;;;1.60;1.20;;;17.80;66.90;;;;;;5029519;28;20457;-72
2023/04/12 11:47:19;;;;;;;3.33;1.43;;;17.80;67.80;;;;;;5032561;28;20463;-73
2023/04/12 11:49:48;;;;;;;1.87;1.20;;;17.90;67.50;;;;;;5033732;28;20860;-72
2023/04/12 11:52:16;;;;;;;1.80;1.20;;;17.90;66.50;;;;;;5033087;28;20476;-73
2023/04/12 11:54:47;;;;;;;2.17;1.03;;;17.90;67.80;;;;;;5033115;28;20237;-72
2023/04/12 11:57:16;;;;;;;2.13;1.20;;;18.10;68.00;;;;;;5033211;28;20301;-72
2023/04/12 11:59:45;;;;;;;1.47;1.10;;;18.30;66.50;;;;;;5032690;28;20473;-70
2023/04/12 12:02:13;;;;;;;1.57;1.23;;;18.40;65.20;;;;;;5032471;28;20202;-72
2023/04/12 12:04:42;;;;;;;4.07;1.40;;;18.60;66.60;;;;;;5032989;28;20456;-72
2023/04/12 12:07:10;;;;;;;1.37;1.20;;;18.50;64.50;;;;;;5040472;28;20535;-72
2023/04/12 12:09:38;;;;;;;1.40;1.30;;;18.60;65.00;;;;;;5053184;28;21015;-72
2023/04/12 12:12:06;;;;;;;1.10;1.10;;;18.80;64.40;;;;;;5052407;28;20208;-71
2023/04/12 12:14:36;;;;;;;1.83;1.20;;;18.70;63.80;;;;;;5052815;28;20476;-72
2023/04/12 12:17:10;;;;;;;1.57;1.00;;;18.80;63.70;;;;;;5035464;28;20217;-72
2023/04/12 12:19:38;;;;;;;2.10;1.27;;;18.60;63.30;;;;;;5053431;28;20210;-70
2023/04/12 12:22:11;;;;;;;1.03;0.93;;;18.50;63.90;;;;;;5048020;28;21181;-72
2023/04/12 12:24:38;;;;;;;2.70;1.57;;;18.40;63.40;;;;;;5052738;28;20449;-71
2023/04/12 12:27:05;;;;;;;1.17;0.90;;;18.40;63.20;;;;;;5052592;28;20863;-72
2023/04/12 12:29:38;;;;;;;1.33;1.10;;;18.40;63.60;;;;;;5052724;28;20602;-72
2023/04/12 12:32:11;;;;;;;0.93;0.80;;;18.50;63.30;;;;;;5052090;28;20206;-72
2023/04/12 12:34:38;;;;;;;1.80;1.20;;;18.40;62.00;;;;;;5052657;28;20243;-73
2023/04/12 12:37:09;;;;;;;1.13;0.87;;;18.40;62.00;;;;;;5052549;28;20198;-72
2023/04/12 12:39:37;;;;;;;2.33;1.20;;;18.40;62.70;;;;;;5052584;28;20209;-72
2023/04/12 12:42:05;;;;;;;1.10;1.00;;;18.60;62.10;;;;;;5052089;28;20565;-72
2023/04/12 12:44:32;;;;;;;2.13;1.50;;;18.70;60.90;;;;;;5052439;28;20218;-71
2023/04/12 12:47:01;;;;;;;1.03;0.93;;;18.80;61.00;;;;;;5052397;28;20448;-72
2023/04/12 12:49:29;;;;;;;2.37;1.10;;;18.80;60.80;;;;;;5052345;28;20723;-72
2023/04/12 12:51:56;;;;;;;1.63;1.20;;;18.90;61.40;;;;;;5042470;28;20202;-72
2023/04/12 12:54:23;;;;;;;2.53;1.10;;;19.10;61.70;;;;;;5031967;28;20230;-73
2023/04/12 12:56:50;;;;;;;1.63;1.37;;;19.20;61.30;;;;;;5032071;28;20218;-72